sensor_id;sensor_type;location;lat;lon;timestamp;temperature;humidity
52387;DHT22;38317;53.084;6.960;2022-07-09T00:00:22;16.40;99.90
52387;DHT22;38317;53.084;6.960;2022-07-09T00:02:48;16.40;99.90
52387;DHT22;38317;53.084;6.960;2022-07-09T00:05:13;16.40;99.90
52387;DHT22;38317;53.084;6.960;2022-07-09T00:07:40;16.40;99.90
52387;DHT22;38317;53.084;6.960;2022-07-09T00:10:06;16.40;99.90
52387;DHT22;38317;53.084;6.960;2022-07-09T00:12:32;16.40;99.90
52387;DHT22;38317;53.084;6.960;2022-07-09T00:14:58;16.30;99.90
52387;DHT22;38317;53.084;6.960;2022-07-09T00:17:24;16.40;99.90
52387;DHT22;38317;53.084;6.960;2022-07-09T00:19:51;16.30;99.90
52387;DHT22;38317;53.084;6.960;2022-07-09T00:22:17;16.30;99.90
52387;DHT22;38317;53.084;6.960;2022-07-09T00:24:43;16.30;99.90
52387;DHT22;38317;53.084;6.960;2022-07-09T00:27:09;16.30;99.90
52387;DHT22;38317;53.084;6.960;2022-07-09T00:29:35;16.30;99.90
52387;DHT22;38317;53.084;6.960;2022-07-09T00:32:01;16.30;99.90
52387;DHT22;38317;53.084;6.960;2022-07-09T00:34:26;16.30;99.90
52387;DHT22;38317;53.084;6.960;2022-07-09T00:36:52;16.30;99.90
52387;DHT22;38317;53.084;6.960;2022-07-09T00:39:18;16.30;99.90
52387;DHT22;38317;53.084;6.960;2022-07-09T00:41:44;16.30;99.90
52387;DHT22;38317;53.084;6.960;2022-07-09T00:44:09;16.30;99.90
52387;DHT22;38317;53.084;6.960;2022-07-09T00:46:35;16.30;99.90
52387;DHT22;38317;53.084;6.960;2022-07-09T00:49:01;16.30;99.90
52387;DHT22;38317;53.084;6.960;2022-07-09T00:51:30;16.30;99.90
52387;DHT22;38317;53.084;6.960;2022-07-09T00:53:57;16.30;99.90
52387;DHT22;38317;53.084;6.960;2022-07-09T00:56:23;16.30;99.90
52387;DHT22;38317;53.084;6.960;2022-07-09T00:58:50;16.30;99.90
52387;DHT22;38317;53.084;6.960;2022-07-09T01:01:16;16.30;99.90
52387;DHT22;38317;53.084;6.960;2022-07-09T01:03:42;16.30;99.90
52387;DHT22;38317;53.084;6.960;2022-07-09T01:06:08;16.30;99.90
52387;DHT22;38317;53.084;6.960;2022-07-09T01:08:34;16.30;99.90
52387;DHT22;38317;53.084;6.960;2022-07-09T01:11:00;16.30;99.90
52387;DHT22;38317;53.084;6.960;2022-07-09T01:13:26;16.30;99.90
52387;DHT22;38317;53.084;6.960;2022-07-09T01:15:52;16.30;99.90
52387;DHT22;38317;53.084;6.960;2022-07-09T01:18:18;16.30;99.90
52387;DHT22;38317;53.084;6.960;2022-07-09T01:20:45;16.20;99.90
52387;DHT22;38317;53.084;6.960;2022-07-09T01:23:11;16.20;99.90
52387;DHT22;38317;53.084;6.960;2022-07-09T01:25:39;16.20;99.90
52387;DHT22;38317;53.084;6.960;2022-07-09T01:28:07;16.20;99.90
52387;DHT22;38317;53.084;6.960;2022-07-09T01:30:35;16.20;99.90
52387;DHT22;38317;53.084;6.960;2022-07-09T01:33:01;16.20;99.90
52387;DHT22;38317;53.084;6.960;2022-07-09T01:35:28;16.20;99.90
52387;DHT22;38317;53.084;6.960;2022-07-09T01:37:54;16.20;99.90
52387;DHT22;38317;53.084;6.960;2022-07-09T01:40:20;16.20;99.90
52387;DHT22;38317;53.084;6.960;2022-07-09T01:42:47;16.20;99.90
52387;DHT22;38317;53.084;6.960;2022-07-09T01:45:14;16.20;99.90
52387;DHT22;38317;53.084;6.960;2022-07-09T01:47:40;16.20;99.90
52387;DHT22;38317;53.084;6.960;2022-07-09T01:50:07;16.20;99.90
52387;DHT22;38317;53.084;6.960;2022-07-09T01:52:33;16.20;99.90
52387;DHT22;38317;53.084;6.960;2022-07-09T01:54:59;16.20;99.90
52387;DHT22;38317;53.084;6.960;2022-07-09T01:57:25;16.10;99.90
52387;DHT22;38317;53.084;6.960;2022-07-09T01:59:52;16.10;99.90
52387;DHT22;38317;53.084;6.960;2022-07-09T02:02:18;16.20;99.90
52387;DHT22;38317;53.084;6.960;2022-07-09T02:04:44;16.20;99.90
52387;DHT22;38317;53.084;6.960;2022-07-09T02:07:11;16.20;99.90
52387;DHT22;38317;53.084;6.960;2022-07-09T02:09:37;16.20;99.90
52387;DHT22;38317;53.084;6.960;2022-07-09T02:12:03;16.20;99.90
52387;DHT22;38317;53.084;6.960;2022-07-09T02:14:30;16.20;99.90
52387;DHT22;38317;53.084;6.960;2022-07-09T02:16:56;16.10;99.90
52387;DHT22;38317;53.084;6.960;2022-07-09T02:19:21;16.10;99.90
52387;DHT22;38317;53.084;6.960;2022-07-09T02:21:47;16.10;99.90
52387;DHT22;38317;53.084;6.960;2022-07-09T02:24:14;16.10;99.90
52387;DHT22;38317;53.084;6.960;2022-07-09T02:26:40;16.10;99.90
52387;DHT22;38317;53.084;6.960;2022-07-09T02:29:06;16.10;99.90
52387;DHT22;38317;53.084;6.960;2022-07-09T02:31:31;16.10;99.90
52387;DHT22;38317;53.084;6.960;2022-07-09T02:33:57;16.10;99.90
52387;DHT22;38317;53.084;6.960;2022-07-09T02:36:23;16.10;99.90
52387;DHT22;38317;53.084;6.960;2022-07-09T02:38:49;16.10;99.90
52387;DHT22;38317;53.084;6.960;2022-07-09T02:41:15;16.10;99.90
52387;DHT22;38317;53.084;6.960;2022-07-09T02:43:41;16.10;99.90
52387;DHT22;38317;53.084;6.960;2022-07-09T02:46:10;16.10;99.90
52387;DHT22;38317;53.084;6.960;2022-07-09T02:48:36;16.10;99.90
52387;DHT22;38317;53.084;6.960;2022-07-09T02:51:03;16.10;99.90
52387;DHT22;38317;53.084;6.960;2022-07-09T02:53:29;16.20;99.90
52387;DHT22;38317;53.084;6.960;2022-07-09T02:55:55;16.10;99.90
52387;DHT22;38317;53.084;6.960;2022-07-09T02:58:20;16.20;99.90
52387;DHT22;38317;53.084;6.960;2022-07-09T03:00:46;16.20;99.90
52387;DHT22;38317;53.084;6.960;2022-07-09T03:03:12;16.20;99.90
52387;DHT22;38317;53.084;6.960;2022-07-09T03:05:38;16.20;99.90
52387;DHT22;38317;53.084;6.960;2022-07-09T03:08:04;16.20;99.90
52387;DHT22;38317;53.084;6.960;2022-07-09T03:10:31;16.20;99.90
52387;DHT22;38317;53.084;6.960;2022-07-09T03:12:57;16.20;99.90
52387;DHT22;38317;53.084;6.960;2022-07-09T03:15:22;16.20;99.90
52387;DHT22;38317;53.084;6.960;2022-07-09T03:17:48;16.20;99.90
52387;DHT22;38317;53.084;6.960;2022-07-09T03:20:14;16.20;99.90
52387;DHT22;38317;53.084;6.960;2022-07-09T03:22:40;16.20;99.90
52387;DHT22;38317;53.084;6.960;2022-07-09T03:25:07;16.10;99.90
52387;DHT22;38317;53.084;6.960;2022-07-09T03:27:34;16.10;99.90
52387;DHT22;38317;53.084;6.960;2022-07-09T03:30:01;16.10;99.90
52387;DHT22;38317;53.084;6.960;2022-07-09T03:32:27;16.10;99.90
52387;DHT22;38317;53.084;6.960;2022-07-09T03:34:53;16.10;99.90
52387;DHT22;38317;53.084;6.960;2022-07-09T03:37:19;16.10;99.90
52387;DHT22;38317;53.084;6.960;2022-07-09T03:39:45;16.10;99.90
52387;DHT22;38317;53.084;6.960;2022-07-09T03:42:11;16.10;99.90
52387;DHT22;38317;53.084;6.960;2022-07-09T03:44:38;16.00;99.90
52387;DHT22;38317;53.084;6.960;2022-07-09T03:47:04;16.00;99.90
52387;DHT22;38317;53.084;6.960;2022-07-09T03:49:30;16.00;99.90
52387;DHT22;38317;53.084;6.960;2022-07-09T03:51:56;16.00;99.90
52387;DHT22;38317;53.084;6.960;2022-07-09T03:54:22;16.00;99.90
52387;DHT22;38317;53.084;6.960;2022-07-09T03:56:48;16.00;99.90
52387;DHT22;38317;53.084;6.960;2022-07-09T03:59:14;16.00;99.90
52387;DHT22;38317;53.084;6.960;2022-07-09T04:01:40;15.90;99.90
52387;DHT22;38317;53.084;6.960;2022-07-09T04:04:05;16.00;99.90
52387;DHT22;38317;53.084;6.960;2022-07-09T04:06:31;16.00;99.90
52387;DHT22;38317;53.084;6.960;2022-07-09T04:08:57;16.00;99.90
52387;DHT22;38317;53.084;6.960;2022-07-09T04:11:23;16.00;99.90
52387;DHT22;38317;53.084;6.960;2022-07-09T04:13:48;16.00;99.90
52387;DHT22;38317;53.084;6.960;2022-07-09T04:16:15;15.90;99.90
52387;DHT22;38317;53.084;6.960;2022-07-09T04:18:41;16.00;99.90
52387;DHT22;38317;53.084;6.960;2022-07-09T04:21:09;16.00;99.90
52387;DHT22;38317;53.084;6.960;2022-07-09T04:23:36;15.80;99.90
52387;DHT22;38317;53.084;6.960;2022-07-09T04:26:02;16.00;99.90
52387;DHT22;38317;53.084;6.960;2022-07-09T04:28:27;15.90;99.90
52387;DHT22;38317;53.084;6.960;2022-07-09T04:30:53;16.00;99.90
52387;DHT22;38317;53.084;6.960;2022-07-09T04:33:19;16.00;99.90
52387;DHT22;38317;53.084;6.960;2022-07-09T04:35:45;16.00;99.90
52387;DHT22;38317;53.084;6.960;2022-07-09T04:38:12;16.00;99.90
52387;DHT22;38317;53.084;6.960;2022-07-09T04:40:38;16.00;99.90
52387;DHT22;38317;53.084;6.960;2022-07-09T04:43:05;16.00;99.90
52387;DHT22;38317;53.084;6.960;2022-07-09T04:45:31;16.00;99.90
52387;DHT22;38317;53.084;6.960;2022-07-09T04:47:58;16.00;99.90
52387;DHT22;38317;53.084;6.960;2022-07-09T04:50:24;16.00;99.90
52387;DHT22;38317;53.084;6.960;2022-07-09T04:52:50;16.10;99.90
52387;DHT22;38317;53.084;6.960;2022-07-09T04:55:16;16.10;99.90
52387;DHT22;38317;53.084;6.960;2022-07-09T04:57:43;16.10;99.90
52387;DHT22;38317;53.084;6.960;2022-07-09T05:00:09;16.10;99.90
52387;DHT22;38317;53.084;6.960;2022-07-09T05:02:39;16.10;99.90
52387;DHT22;38317;53.084;6.960;2022-07-09T05:05:06;16.20;99.90
52387;DHT22;38317;53.084;6.960;2022-07-09T05:07:32;16.10;99.90
52387;DHT22;38317;53.084;6.960;2022-07-09T05:09:59;16.20;99.90
52387;DHT22;38317;53.084;6.960;2022-07-09T05:12:27;16.10;99.90
52387;DHT22;38317;53.084;6.960;2022-07-09T05:14:53;16.20;99.90
52387;DHT22;38317;53.084;6.960;2022-07-09T05:17:20;16.20;99.90
52387;DHT22;38317;53.084;6.960;2022-07-09T05:19:45;16.30;99.90
52387;DHT22;38317;53.084;6.960;2022-07-09T05:22:11;16.30;99.90
52387;DHT22;38317;53.084;6.960;2022-07-09T05:24:37;16.40;99.90
52387;DHT22;38317;53.084;6.960;2022-07-09T05:27:03;16.40;99.90
52387;DHT22;38317;53.084;6.960;2022-07-09T05:29:29;16.40;99.90
52387;DHT22;38317;53.084;6.960;2022-07-09T05:31:55;16.40;99.90
52387;DHT22;38317;53.084;6.960;2022-07-09T05:34:24;16.40;99.90
52387;DHT22;38317;53.084;6.960;2022-07-09T05:36:52;16.50;99.90
52387;DHT22;38317;53.084;6.960;2022-07-09T05:39:20;16.40;99.90
52387;DHT22;38317;53.084;6.960;2022-07-09T05:41:46;16.50;99.90
52387;DHT22;38317;53.084;6.960;2022-07-09T05:44:12;16.50;99.90
52387;DHT22;38317;53.084;6.960;2022-07-09T05:46:38;16.50;99.90
52387;DHT22;38317;53.084;6.960;2022-07-09T05:49:03;16.50;99.90
52387;DHT22;38317;53.084;6.960;2022-07-09T05:51:29;16.60;99.90
52387;DHT22;38317;53.084;6.960;2022-07-09T05:53:55;16.60;99.90
52387;DHT22;38317;53.084;6.960;2022-07-09T05:56:21;16.70;99.90
52387;DHT22;38317;53.084;6.960;2022-07-09T05:58:47;16.70;99.90
52387;DHT22;38317;53.084;6.960;2022-07-09T06:01:13;16.80;99.90
52387;DHT22;38317;53.084;6.960;2022-07-09T06:03:42;16.80;99.90
52387;DHT22;38317;53.084;6.960;2022-07-09T06:06:09;16.80;99.90
52387;DHT22;38317;53.084;6.960;2022-07-09T06:08:35;16.80;99.90
52387;DHT22;38317;53.084;6.960;2022-07-09T06:11:02;16.90;99.90
52387;DHT22;38317;53.084;6.960;2022-07-09T06:13:28;16.90;99.90
52387;DHT22;38317;53.084;6.960;2022-07-09T06:15:54;16.90;99.90
52387;DHT22;38317;53.084;6.960;2022-07-09T06:18:20;16.90;99.90
52387;DHT22;38317;53.084;6.960;2022-07-09T06:20:47;17.00;99.90
52387;DHT22;38317;53.084;6.960;2022-07-09T06:23:13;17.00;99.90
52387;DHT22;38317;53.084;6.960;2022-07-09T06:25:39;17.00;99.90
52387;DHT22;38317;53.084;6.960;2022-07-09T06:28:06;17.10;99.90
52387;DHT22;38317;53.084;6.960;2022-07-09T06:30:32;17.10;99.90
52387;DHT22;38317;53.084;6.960;2022-07-09T06:33:00;17.10;99.90
52387;DHT22;38317;53.084;6.960;2022-07-09T06:35:26;17.10;99.90
52387;DHT22;38317;53.084;6.960;2022-07-09T06:37:51;17.20;99.90
52387;DHT22;38317;53.084;6.960;2022-07-09T06:40:17;17.20;99.90
52387;DHT22;38317;53.084;6.960;2022-07-09T06:42:43;17.20;99.90
52387;DHT22;38317;53.084;6.960;2022-07-09T06:45:09;17.20;99.90
52387;DHT22;38317;53.084;6.960;2022-07-09T06:47:36;17.20;99.90
52387;DHT22;38317;53.084;6.960;2022-07-09T06:50:01;17.30;99.90
52387;DHT22;38317;53.084;6.960;2022-07-09T06:52:27;17.30;99.90
52387;DHT22;38317;53.084;6.960;2022-07-09T06:54:53;17.40;99.90
52387;DHT22;38317;53.084;6.960;2022-07-09T06:57:19;17.40;99.90
52387;DHT22;38317;53.084;6.960;2022-07-09T06:59:45;17.40;99.90
52387;DHT22;38317;53.084;6.960;2022-07-09T07:02:12;17.50;99.90
52387;DHT22;38317;53.084;6.960;2022-07-09T07:04:38;17.60;99.90
52387;DHT22;38317;53.084;6.960;2022-07-09T07:07:04;17.50;99.90
52387;DHT22;38317;53.084;6.960;2022-07-09T07:09:30;17.60;99.90
52387;DHT22;38317;53.084;6.960;2022-07-09T07:11:57;17.60;99.90
52387;DHT22;38317;53.084;6.960;2022-07-09T07:14:23;17.60;99.90
52387;DHT22;38317;53.084;6.960;2022-07-09T07:16:49;17.60;99.90
52387;DHT22;38317;53.084;6.960;2022-07-09T07:19:15;17.60;99.90
52387;DHT22;38317;53.084;6.960;2022-07-09T07:21:41;17.60;99.90
52387;DHT22;38317;53.084;6.960;2022-07-09T07:24:07;17.70;99.90
52387;DHT22;38317;53.084;6.960;2022-07-09T07:26:34;17.70;99.90
52387;DHT22;38317;53.084;6.960;2022-07-09T07:29:00;17.80;99.90
52387;DHT22;38317;53.084;6.960;2022-07-09T07:31:26;17.80;99.90
52387;DHT22;38317;53.084;6.960;2022-07-09T07:33:52;17.80;99.90
52387;DHT22;38317;53.084;6.960;2022-07-09T07:36:18;17.90;99.90
52387;DHT22;38317;53.084;6.960;2022-07-09T07:38:44;18.00;99.90
52387;DHT22;38317;53.084;6.960;2022-07-09T07:41:11;18.10;99.90
52387;DHT22;38317;53.084;6.960;2022-07-09T07:43:38;18.10;99.90
52387;DHT22;38317;53.084;6.960;2022-07-09T07:46:04;18.20;99.90
52387;DHT22;38317;53.084;6.960;2022-07-09T07:48:29;18.20;99.90
52387;DHT22;38317;53.084;6.960;2022-07-09T07:50:57;18.30;99.90
52387;DHT22;38317;53.084;6.960;2022-07-09T07:53:23;18.40;99.90
52387;DHT22;38317;53.084;6.960;2022-07-09T07:55:49;18.50;99.90
52387;DHT22;38317;53.084;6.960;2022-07-09T07:58:15;18.60;99.90
52387;DHT22;38317;53.084;6.960;2022-07-09T08:00:41;18.70;99.90
52387;DHT22;38317;53.084;6.960;2022-07-09T08:03:07;18.00;99.90
52387;DHT22;38317;53.084;6.960;2022-07-09T08:05:33;18.90;99.90
52387;DHT22;38317;53.084;6.960;2022-07-09T08:07:59;18.90;99.90
52387;DHT22;38317;53.084;6.960;2022-07-09T08:10:25;19.00;99.90
52387;DHT22;38317;53.084;6.960;2022-07-09T08:12:51;19.10;99.90
52387;DHT22;38317;53.084;6.960;2022-07-09T08:15:17;19.10;99.90
52387;DHT22;38317;53.084;6.960;2022-07-09T08:17:43;19.20;99.90
52387;DHT22;38317;53.084;6.960;2022-07-09T08:20:10;19.30;99.90
52387;DHT22;38317;53.084;6.960;2022-07-09T08:22:36;19.40;99.90
52387;DHT22;38317;53.084;6.960;2022-07-09T08:25:03;19.50;99.90
52387;DHT22;38317;53.084;6.960;2022-07-09T08:27:29;19.50;99.90
52387;DHT22;38317;53.084;6.960;2022-07-09T08:29:54;19.40;99.90
52387;DHT22;38317;53.084;6.960;2022-07-09T08:32:20;19.50;99.90
52387;DHT22;38317;53.084;6.960;2022-07-09T08:34:46;19.70;99.90
52387;DHT22;38317;53.084;6.960;2022-07-09T08:37:12;19.90;99.90
52387;DHT22;38317;53.084;6.960;2022-07-09T08:39:37;20.10;99.90
52387;DHT22;38317;53.084;6.960;2022-07-09T08:42:08;20.30;99.90
52387;DHT22;38317;53.084;6.960;2022-07-09T08:44:38;20.40;99.90
52387;DHT22;38317;53.084;6.960;2022-07-09T08:47:05;20.40;99.90
52387;DHT22;38317;53.084;6.960;2022-07-09T08:49:34;20.20;99.90
52387;DHT22;38317;53.084;6.960;2022-07-09T08:52:02;20.00;99.90
52387;DHT22;38317;53.084;6.960;2022-07-09T08:54:30;19.90;99.90
52387;DHT22;38317;53.084;6.960;2022-07-09T08:56:56;20.10;99.90
52387;DHT22;38317;53.084;6.960;2022-07-09T08:59:22;20.50;99.90
52387;DHT22;38317;53.084;6.960;2022-07-09T09:01:48;20.60;99.90
52387;DHT22;38317;53.084;6.960;2022-07-09T09:04:14;20.50;99.90
52387;DHT22;38317;53.084;6.960;2022-07-09T09:06:40;20.40;99.90
52387;DHT22;38317;53.084;6.960;2022-07-09T09:09:08;20.50;99.90
52387;DHT22;38317;53.084;6.960;2022-07-09T09:11:34;20.90;99.90
52387;DHT22;38317;53.084;6.960;2022-07-09T09:14:02;21.30;99.90
52387;DHT22;38317;53.084;6.960;2022-07-09T09:16:29;21.60;99.90
52387;DHT22;38317;53.084;6.960;2022-07-09T09:18:55;21.50;99.90
52387;DHT22;38317;53.084;6.960;2022-07-09T09:21:25;21.30;99.90
52387;DHT22;38317;53.084;6.960;2022-07-09T09:23:52;21.10;99.90
52387;DHT22;38317;53.084;6.960;2022-07-09T09:26:20;21.10;99.90
52387;DHT22;38317;53.084;6.960;2022-07-09T09:31:22;21.50;99.90
52387;DHT22;38317;53.084;6.960;2022-07-09T09:33:53;21.40;99.90
52387;DHT22;38317;53.084;6.960;2022-07-09T09:36:34;21.30;99.90
52387;DHT22;38317;53.084;6.960;2022-07-09T09:39:14;21.00;99.90
52387;DHT22;38317;53.084;6.960;2022-07-09T09:41:42;20.70;99.90
52387;DHT22;38317;53.084;6.960;2022-07-09T09:44:11;20.60;99.90
52387;DHT22;38317;53.084;6.960;2022-07-09T09:46:38;20.50;99.90
52387;DHT22;38317;53.084;6.960;2022-07-09T09:49:05;20.60;99.90
52387;DHT22;38317;53.084;6.960;2022-07-09T09:51:38;20.70;99.90
52387;DHT22;38317;53.084;6.960;2022-07-09T09:54:08;20.90;99.90
52387;DHT22;38317;53.084;6.960;2022-07-09T09:56:35;21.00;99.90
52387;DHT22;38317;53.084;6.960;2022-07-09T09:59:01;21.10;99.90
52387;DHT22;38317;53.084;6.960;2022-07-09T10:01:28;21.20;99.90
52387;DHT22;38317;53.084;6.960;2022-07-09T10:03:55;21.20;99.90
52387;DHT22;38317;53.084;6.960;2022-07-09T10:06:21;21.20;99.90
52387;DHT22;38317;53.084;6.960;2022-07-09T10:08:47;21.20;99.90
52387;DHT22;38317;53.084;6.960;2022-07-09T10:11:13;21.20;99.90
52387;DHT22;38317;53.084;6.960;2022-07-09T10:13:50;21.10;99.90
52387;DHT22;38317;53.084;6.960;2022-07-09T10:16:16;21.20;99.90
52387;DHT22;38317;53.084;6.960;2022-07-09T10:18:52;21.20;99.90
52387;DHT22;38317;53.084;6.960;2022-07-09T10:21:30;21.10;99.90
52387;DHT22;38317;53.084;6.960;2022-07-09T10:23:55;21.20;99.90
52387;DHT22;38317;53.084;6.960;2022-07-09T10:26:21;21.20;99.90
52387;DHT22;38317;53.084;6.960;2022-07-09T10:28:47;21.40;99.90
52387;DHT22;38317;53.084;6.960;2022-07-09T10:31:20;21.80;99.90
52387;DHT22;38317;53.084;6.960;2022-07-09T10:34:06;22.00;99.90
52387;DHT22;38317;53.084;6.960;2022-07-09T10:36:32;22.40;99.90
52387;DHT22;38317;53.084;6.960;2022-07-09T10:38:58;22.60;99.90
52387;DHT22;38317;53.084;6.960;2022-07-09T10:41:25;22.90;99.90
52387;DHT22;38317;53.084;6.960;2022-07-09T10:43:51;23.20;99.90
52387;DHT22;38317;53.084;6.960;2022-07-09T10:46:17;23.40;99.90
52387;DHT22;38317;53.084;6.960;2022-07-09T10:48:47;23.60;99.90
52387;DHT22;38317;53.084;6.960;2022-07-09T10:51:21;23.60;99.90
52387;DHT22;38317;53.084;6.960;2022-07-09T10:53:47;23.50;99.90
52387;DHT22;38317;53.084;6.960;2022-07-09T10:56:18;23.40;99.90
52387;DHT22;38317;53.084;6.960;2022-07-09T10:58:48;23.40;99.90
52387;DHT22;38317;53.084;6.960;2022-07-09T11:01:21;23.50;99.90
52387;DHT22;38317;53.084;6.960;2022-07-09T11:03:51;23.60;99.90
52387;DHT22;38317;53.084;6.960;2022-07-09T11:06:17;23.20;99.90
52387;DHT22;38317;53.084;6.960;2022-07-09T11:08:43;22.80;99.90
52387;DHT22;38317;53.084;6.960;2022-07-09T11:11:09;22.50;99.90
52387;DHT22;38317;53.084;6.960;2022-07-09T11:13:35;22.50;99.90
52387;DHT22;38317;53.084;6.960;2022-07-09T11:16:01;22.50;99.90
52387;DHT22;38317;53.084;6.960;2022-07-09T11:18:28;22.30;99.90
52387;DHT22;38317;53.084;6.960;2022-07-09T11:20:55;21.80;99.90
52387;DHT22;38317;53.084;6.960;2022-07-09T11:23:20;21.30;99.90
52387;DHT22;38317;53.084;6.960;2022-07-09T11:25:46;21.20;99.90
52387;DHT22;38317;53.084;6.960;2022-07-09T11:28:22;21.10;99.90
52387;DHT22;38317;53.084;6.960;2022-07-09T11:31:02;21.20;99.90
52387;DHT22;38317;53.084;6.960;2022-07-09T11:33:29;21.20;99.90
52387;DHT22;38317;53.084;6.960;2022-07-09T11:36:15;21.10;99.90
52387;DHT22;38317;53.084;6.960;2022-07-09T11:38:52;20.90;99.90
52387;DHT22;38317;53.084;6.960;2022-07-09T11:41:18;20.90;99.90
52387;DHT22;38317;53.084;6.960;2022-07-09T11:43:48;20.90;99.90
52387;DHT22;38317;53.084;6.960;2022-07-09T11:46:18;21.00;99.90
52387;DHT22;38317;53.084;6.960;2022-07-09T11:48:49;21.10;99.90
52387;DHT22;38317;53.084;6.960;2022-07-09T11:51:26;21.20;99.90
52387;DHT22;38317;53.084;6.960;2022-07-09T11:53:52;21.30;99.90
52387;DHT22;38317;53.084;6.960;2022-07-09T11:56:18;21.20;99.90
52387;DHT22;38317;53.084;6.960;2022-07-09T11:58:50;21.20;99.90
52387;DHT22;38317;53.084;6.960;2022-07-09T12:01:16;21.10;99.90
52387;DHT22;38317;53.084;6.960;2022-07-09T12:03:49;20.90;99.90
52387;DHT22;38317;53.084;6.960;2022-07-09T12:06:15;20.80;99.90
52387;DHT22;38317;53.084;6.960;2022-07-09T12:08:41;20.70;99.90
52387;DHT22;38317;53.084;6.960;2022-07-09T12:11:07;20.60;99.90
52387;DHT22;38317;53.084;6.960;2022-07-09T12:13:33;20.70;99.90
52387;DHT22;38317;53.084;6.960;2022-07-09T12:15:59;20.90;99.90
52387;DHT22;38317;53.084;6.960;2022-07-09T12:18:25;21.30;99.90
52387;DHT22;38317;53.084;6.960;2022-07-09T12:20:51;21.50;99.90
52387;DHT22;38317;53.084;6.960;2022-07-09T12:23:16;21.80;99.90
52387;DHT22;38317;53.084;6.960;2022-07-09T12:25:42;21.90;99.90
52387;DHT22;38317;53.084;6.960;2022-07-09T12:28:08;22.20;99.90
52387;DHT22;38317;53.084;6.960;2022-07-09T12:30:34;22.40;99.90
52387;DHT22;38317;53.084;6.960;2022-07-09T12:33:00;22.70;99.90
52387;DHT22;38317;53.084;6.960;2022-07-09T12:35:26;22.80;99.90
52387;DHT22;38317;53.084;6.960;2022-07-09T12:37:52;22.90;99.90
52387;DHT22;38317;53.084;6.960;2022-07-09T12:40:18;22.80;99.90
52387;DHT22;38317;53.084;6.960;2022-07-09T12:42:44;22.60;99.90
52387;DHT22;38317;53.084;6.960;2022-07-09T12:45:10;22.40;99.90
52387;DHT22;38317;53.084;6.960;2022-07-09T12:47:37;22.30;99.90
52387;DHT22;38317;53.084;6.960;2022-07-09T12:50:04;21.90;99.90
52387;DHT22;38317;53.084;6.960;2022-07-09T12:52:31;21.70;99.90
52387;DHT22;38317;53.084;6.960;2022-07-09T12:55:02;21.50;99.90
52387;DHT22;38317;53.084;6.960;2022-07-09T12:57:28;21.60;99.90
52387;DHT22;38317;53.084;6.960;2022-07-09T12:59:54;21.70;99.90
52387;DHT22;38317;53.084;6.960;2022-07-09T13:02:19;21.70;99.90
52387;DHT22;38317;53.084;6.960;2022-07-09T13:04:45;21.80;99.90
52387;DHT22;38317;53.084;6.960;2022-07-09T13:07:11;21.80;99.90
52387;DHT22;38317;53.084;6.960;2022-07-09T13:09:37;21.70;99.90
52387;DHT22;38317;53.084;6.960;2022-07-09T13:12:03;21.60;99.90
52387;DHT22;38317;53.084;6.960;2022-07-09T13:14:29;21.60;99.90
52387;DHT22;38317;53.084;6.960;2022-07-09T13:16:55;21.60;99.90
52387;DHT22;38317;53.084;6.960;2022-07-09T13:19:21;21.70;99.90
52387;DHT22;38317;53.084;6.960;2022-07-09T13:21:47;21.60;99.90
52387;DHT22;38317;53.084;6.960;2022-07-09T13:24:12;21.40;99.90
52387;DHT22;38317;53.084;6.960;2022-07-09T13:26:39;21.30;99.90
52387;DHT22;38317;53.084;6.960;2022-07-09T13:29:05;21.20;99.90
52387;DHT22;38317;53.084;6.960;2022-07-09T13:31:31;21.10;99.90
52387;DHT22;38317;53.084;6.960;2022-07-09T13:33:57;21.10;99.90
52387;DHT22;38317;53.084;6.960;2022-07-09T13:36:23;21.10;99.90
52387;DHT22;38317;53.084;6.960;2022-07-09T13:38:48;21.30;99.90
52387;DHT22;38317;53.084;6.960;2022-07-09T13:41:14;21.30;99.90
52387;DHT22;38317;53.084;6.960;2022-07-09T13:43:42;21.40;99.90
52387;DHT22;38317;53.084;6.960;2022-07-09T13:46:08;21.40;99.90
52387;DHT22;38317;53.084;6.960;2022-07-09T13:48:35;21.50;99.90
52387;DHT22;38317;53.084;6.960;2022-07-09T13:51:01;21.60;99.90
52387;DHT22;38317;53.084;6.960;2022-07-09T13:53:27;21.50;99.90
52387;DHT22;38317;53.084;6.960;2022-07-09T13:55:54;21.40;99.90
52387;DHT22;38317;53.084;6.960;2022-07-09T13:58:20;21.20;99.90
52387;DHT22;38317;53.084;6.960;2022-07-09T14:00:46;21.00;99.90
52387;DHT22;38317;53.084;6.960;2022-07-09T14:03:11;21.10;99.90
52387;DHT22;38317;53.084;6.960;2022-07-09T14:05:37;21.20;99.90
52387;DHT22;38317;53.084;6.960;2022-07-09T14:08:04;21.30;99.90
52387;DHT22;38317;53.084;6.960;2022-07-09T14:10:32;21.30;99.90
52387;DHT22;38317;53.084;6.960;2022-07-09T14:12:58;21.30;99.90
52387;DHT22;38317;53.084;6.960;2022-07-09T14:15:24;21.30;99.90
52387;DHT22;38317;53.084;6.960;2022-07-09T14:17:50;21.20;99.90
52387;DHT22;38317;53.084;6.960;2022-07-09T14:20:16;21.00;99.90
52387;DHT22;38317;53.084;6.960;2022-07-09T14:22:42;21.00;99.90
52387;DHT22;38317;53.084;6.960;2022-07-09T14:25:08;20.90;99.90
52387;DHT22;38317;53.084;6.960;2022-07-09T14:27:34;20.90;99.90
52387;DHT22;38317;53.084;6.960;2022-07-09T14:29:59;20.80;99.90
52387;DHT22;38317;53.084;6.960;2022-07-09T14:32:25;20.80;99.90
52387;DHT22;38317;53.084;6.960;2022-07-09T14:34:51;20.70;99.90
52387;DHT22;38317;53.084;6.960;2022-07-09T14:37:17;20.70;99.90
52387;DHT22;38317;53.084;6.960;2022-07-09T14:39:42;20.40;99.90
52387;DHT22;38317;53.084;6.960;2022-07-09T14:42:08;20.30;99.90
52387;DHT22;38317;53.084;6.960;2022-07-09T14:44:34;20.10;99.90
52387;DHT22;38317;53.084;6.960;2022-07-09T14:47:00;19.90;99.90
52387;DHT22;38317;53.084;6.960;2022-07-09T14:49:26;19.80;99.90
52387;DHT22;38317;53.084;6.960;2022-07-09T14:51:55;19.70;99.90
52387;DHT22;38317;53.084;6.960;2022-07-09T14:54:21;19.60;99.90
52387;DHT22;38317;53.084;6.960;2022-07-09T14:56:47;19.60;99.90
52387;DHT22;38317;53.084;6.960;2022-07-09T14:59:13;19.50;99.90
52387;DHT22;38317;53.084;6.960;2022-07-09T15:01:43;19.50;99.90
52387;DHT22;38317;53.084;6.960;2022-07-09T15:04:08;19.50;99.90
52387;DHT22;38317;53.084;6.960;2022-07-09T15:06:34;19.30;99.90
52387;DHT22;38317;53.084;6.960;2022-07-09T15:09:00;19.30;99.90
52387;DHT22;38317;53.084;6.960;2022-07-09T15:11:26;19.20;99.90
52387;DHT22;38317;53.084;6.960;2022-07-09T15:13:52;19.30;99.90
52387;DHT22;38317;53.084;6.960;2022-07-09T15:16:18;19.30;99.90
52387;DHT22;38317;53.084;6.960;2022-07-09T15:18:43;19.30;99.90
52387;DHT22;38317;53.084;6.960;2022-07-09T15:21:09;19.30;99.90
52387;DHT22;38317;53.084;6.960;2022-07-09T15:23:36;19.20;99.90
52387;DHT22;38317;53.084;6.960;2022-07-09T15:26:02;19.30;99.90
52387;DHT22;38317;53.084;6.960;2022-07-09T15:28:28;19.20;99.90